Merry Christmas and Happy New Year!

 

Sretan Božić i Nova godina!

 

METAR

METAR LDZA 181100Z VRB03KT CAVOK 30/15 Q1017 NOSIG =
METAR LDSP 181100Z 23014KT CAVOK 28/13 Q1017 NOSIG=
METAR LDDU 181100Z 24010KT 210V270 CAVOK 24/14 Q1018 BECMG 29009KT =
METAR LDZD 181100Z 24008KT 200V290 9999 FEW050 29/11 Q1017 BECMG 31009KT =
METAR LDPL 181100Z 22006KT 170V250 CAVOK 27/16 Q1018 NOSIG=
METAR LDOS 181100Z 06006KT 030V150 9999 FEW045 29/15 Q1017=
METAR LDSB 181100Z 22010KT CAVOK 26/08 Q1019=
METAR LDRI 181100Z 27006KT 210V320 CAVOK 28/16 Q1018=
METAR LDLO 181100Z 19009KT CAVOK 27/18 Q1018=

TAF

TAF LDZA 180525Z 1806/1906 VRB02KT CAVOK
                 TX31/1814Z TN17/1903Z
    PROB30 TEMPO 1810/1815 22008KT=         
TAF LDSP 180525Z 1806/1906 VRB02KT CAVOK
                 TX30/1814Z TN20/1901Z
           BECMG 1810/1812 23009KT
           BECMG 1818/1820 33006KT=         
TAF LDDU 180525Z 1806/1906 10004KT CAVOK
                 TX26/1812Z TN18/1902Z
           BECMG 1809/1811 28012KT
           BECMG 1815/1817 02005KT=         
TAF LDZD 180525Z 1806/1906 VRB02KT CAVOK
                 TX30/1814Z TN17/1901Z
           BECMG 1809/1811 31009KT
           BECMG 1816/1818 31005KT=         
TAF LDPL 180525Z 1806/1906 VRB02KT CAVOK
                 TX28/1813Z TN19/1903Z
           TEMPO 1812/1816 27008KT=         
TAF LDOS 180525Z 1806/1906 10005KT CAVOK
                 TX30/1814Z TN18/1903Z
           BECMG 1815/1817 30006KT=         
TAF LDRI 180525Z 1806/1906 VRB02KT CAVOK
                 TX29/1815Z TN20/1903Z
    PROB30 TEMPO 1809/1816 32007KT=         
TAF LDSB 180629Z 1806/1906 VRB02KT CAVOK
                 TX28/1812Z TN18/1901Z
           BECMG 1809/1811 22008KT
           BECMG 1815/1817 35005KT=         
TAF LDLO 180616Z 1806/1906 04005KT CAVOK
                 TX31/1814Z TN21/1902Z
    PROB30 TEMPO 1810/1817 21008KT=

SIGMET

AIRMET

If you cannot log in with your user account, please contact stjepko.jancijev@crocontrol.hr.
Specifically, the website deactivates user accounts that have not been used for more than 365 days, so they must be reactivated.
 

         

      Politika MET podataka      

 

Ukoliko se svojim korisničkim računom ne možete logirati na web stranicu, molim vas da se obratite na stjepko.jancijev@crocontrol.hr.

Naime, web stranica deaktivira korisničke račune koji nisu korišteni više od 365 dana te ih je potrebno ponovno aktivirati.